Time;durP1;ratioP1;P1;durP2;ratioP2;P2;SDS_P1;SDS_P2;PMS_P1;PMS_P2;Temp;Humidity;BMP_temperature;BMP_pressure;BME280_temperature;BME280_humidity;BME280_pressure;Samples;Min_cycle;Max_cycle;Signal;HPM_P1;HPM_P2
2023/04/17 00:02:14;;;;;;;2.53;0.77;;;25.80;99.90;;;;;;5117534;28;20175;-71
2023/04/17 00:04:42;;;;;;;2.17;0.50;;;26.00;99.90;;;;;;5114856;28;20182;-71
2023/04/17 00:07:10;;;;;;;2.53;0.70;;;26.70;99.90;;;;;;5114851;28;20183;-72
2023/04/17 00:09:37;;;;;;;1.57;0.50;;;27.30;99.90;;;;;;5114783;28;20628;-72
2023/04/17 00:12:05;;;;;;;4.10;0.87;;;27.50;99.90;;;;;;5106398;28;20187;-71
2023/04/17 00:14:33;;;;;;;3.47;0.40;;;27.40;99.90;;;;;;5110620;28;20549;-71
2023/04/17 00:17:01;;;;;;;3.77;0.80;;;27.00;99.90;;;;;;5095041;28;20258;-72
2023/04/17 00:19:29;;;;;;;1.23;0.63;;;26.80;99.90;;;;;;5095524;28;20266;-71
2023/04/17 00:21:56;;;;;;;5.07;0.70;;;27.30;99.90;;;;;;5095311;28;20226;-72
2023/04/17 00:24:24;;;;;;;3.30;0.67;;;27.60;99.90;;;;;;5095012;28;20690;-71
2023/04/17 00:26:52;;;;;;;1.83;0.60;;;27.20;99.90;;;;;;5095326;28;20223;-71
2023/04/17 00:29:20;;;;;;;6.23;0.60;;;27.10;99.90;;;;;;5095232;28;20201;-72
2023/04/17 00:31:47;;;;;;;5.50;0.80;;;27.30;99.90;;;;;;5094910;28;20194;-72
2023/04/17 00:34:15;;;;;;;2.27;0.57;;;26.70;99.90;;;;;;5094428;28;20262;-73
2023/04/17 00:36:43;;;;;;;2.90;1.00;;;27.20;99.90;;;;;;5099725;28;20186;-69
2023/04/17 00:39:10;;;;;;;7.43;0.83;;;27.20;99.90;;;;;;5103150;28;20273;-70
2023/04/17 00:41:38;;;;;;;1.83;0.80;;;27.10;99.90;;;;;;5103934;28;20256;-71
2023/04/17 00:44:06;;;;;;;3.50;0.60;;;27.70;99.40;;;;;;5108087;28;20197;-71
2023/04/17 00:46:34;;;;;;;4.60;0.70;;;28.20;99.20;;;;;;5094290;28;20642;-72
2023/04/17 00:52:58;;;;;;;3.55;1.02;;;29.00;99.90;;;;;;5109179;28;20182;-72
2023/04/17 00:55:27;;;;;;;1.03;0.53;;;29.20;94.10;;;;;;5108955;28;20533;-71
2023/04/17 00:57:56;;;;;;;2.47;0.60;;;28.30;97.80;;;;;;5103189;28;20183;-71
2023/04/17 01:00:24;;;;;;;3.73;0.70;;;28.50;98.10;;;;;;5098970;28;20211;-72
2023/04/17 01:02:52;;;;;;;2.45;0.82;;;28.70;97.50;;;;;;5105270;28;20175;-70
2023/04/17 01:05:20;;;;;;;3.17;0.70;;;29.20;93.90;;;;;;5095819;28;20222;-70
2023/04/17 01:07:47;;;;;;;3.20;0.80;;;30.20;87.30;;;;;;5104646;28;20171;-71
2023/04/17 01:10:15;;;;;;;3.10;0.73;;;29.40;89.00;;;;;;5094584;28;20191;-72
2023/04/17 01:12:45;;;;;;;6.05;0.98;;;29.00;84.40;;;;;;5103671;28;20174;-71
2023/04/17 01:15:13;;;;;;;2.43;0.60;;;28.40;92.20;;;;;;5112278;28;20179;-73
2023/04/17 01:17:41;;;;;;;3.90;1.00;;;28.90;94.30;;;;;;5112170;28;20179;-71
2023/04/17 01:20:10;;;;;;;2.60;0.73;;;29.10;88.10;;;;;;5114083;28;20214;-69
2023/04/17 01:22:38;;;;;;;2.40;0.50;;;29.60;87.40;;;;;;5097288;28;20235;-71
2023/04/17 01:25:07;;;;;;;2.80;0.75;;;29.10;83.40;;;;;;5114075;28;20212;-72
2023/04/17 01:27:34;;;;;;;4.57;0.63;;;28.00;79.10;;;;;;5114062;28;20193;-67
2023/04/17 01:30:02;;;;;;;2.53;0.80;;;28.00;94.40;;;;;;5112467;28;20179;-69
2023/04/17 01:32:30;;;;;;;4.47;0.90;;;28.20;95.70;;;;;;5094162;28;20255;-67
2023/04/17 01:34:58;;;;;;;3.33;0.70;;;28.70;91.70;;;;;;5094150;28;20255;-71
2023/04/17 01:37:26;;;;;;;4.27;0.73;;;27.90;93.20;;;;;;5093571;28;20669;-69
2023/04/17 01:39:54;;;;;;;4.27;1.17;;;26.70;93.50;;;;;;5093974;28;20215;-69
2023/04/17 01:42:23;;;;;;;4.73;1.00;;;26.70;99.90;;;;;;5094003;28;20521;-71
2023/04/17 01:44:50;;;;;;;2.30;0.70;;;27.50;98.90;;;;;;5094476;28;20198;-69
2023/04/17 01:47:18;;;;;;;1.40;0.60;;;27.80;92.80;;;;;;5113054;28;20257;-69
2023/04/17 01:49:46;;;;;;;3.87;0.70;;;27.90;92.20;;;;;;5114274;28;20497;-73
2023/04/17 01:52:14;;;;;;;4.57;0.70;;;27.10;91.90;;;;;;5111960;28;20267;-67
2023/04/17 01:54:41;;;;;;;2.73;0.60;;;26.30;95.60;;;;;;5100438;28;20178;-70
2023/04/17 01:57:09;;;;;;;1.07;0.60;;;25.70;99.90;;;;;;5105997;28;20253;-69
2023/04/17 01:59:37;;;;;;;2.80;0.70;;;26.10;99.90;;;;;;5103532;28;20178;-71
2023/04/17 02:02:04;;;;;;;6.00;0.90;;;26.90;99.90;;;;;;5113584;28;20194;-71
2023/04/17 02:04:32;;;;;;;2.67;0.60;;;27.20;98.60;;;;;;5112223;28;20551;-71
2023/04/17 02:07:00;;;;;;;3.73;1.00;;;27.20;96.80;;;;;;5111522;28;20182;-70
2023/04/17 02:09:28;;;;;;;5.03;0.53;;;28.50;92.00;;;;;;5102225;28;20198;-71
2023/04/17 02:11:55;;;;;;;1.87;0.60;;;28.90;91.70;;;;;;5093451;28;20186;-71
2023/04/17 02:14:24;;;;;;;4.40;0.60;;;29.60;91.80;;;;;;5092802;28;20183;-74
2023/04/17 02:16:52;;;;;;;3.95;0.82;;;30.10;77.90;;;;;;5093440;28;20187;-70
2023/04/17 02:19:20;;;;;;;3.38;0.65;;;30.60;78.10;;;;;;5106432;28;20182;-67
2023/04/17 02:21:48;;;;;;;2.53;0.63;;;30.80;68.80;;;;;;5112798;28;20229;-69
2023/04/17 02:24:15;;;;;;;5.38;0.73;;;31.20;63.70;;;;;;5113251;27;20174;-70
2023/04/17 02:26:43;;;;;;;4.72;0.73;;;31.60;58.10;;;;;;5112053;28;20178;-71
2023/04/17 02:29:11;;;;;;;5.13;0.65;;;31.00;71.00;;;;;;5104052;28;20179;-70
2023/04/17 02:31:40;;;;;;;2.28;0.70;;;30.90;67.90;;;;;;5092824;28;20232;-72
2023/04/17 02:34:08;;;;;;;4.47;1.25;;;30.80;74.80;;;;;;5092725;28;20180;-72
2023/04/17 02:36:35;;;;;;;6.18;0.73;;;30.70;69.40;;;;;;5092463;28;20171;-71
2023/04/17 02:39:04;;;;;;;4.57;0.90;;;29.70;71.40;;;;;;5097130;28;20191;-69
2023/04/17 02:41:32;;;;;;;3.43;0.90;;;28.30;77.30;;;;;;5104170;28;20708;-69
2023/04/17 02:44:02;;;;;;;3.90;1.20;;;27.50;88.10;;;;;;5112674;27;20656;-68
2023/04/17 02:46:29;;;;;;;5.10;0.90;;;27.10;94.00;;;;;;5113005;28;20898;-68
2023/04/17 02:48:57;;;;;;;2.50;0.70;;;26.60;99.00;;;;;;5106593;28;20182;-70
2023/04/17 02:51:25;;;;;;;3.07;0.93;;;26.20;99.90;;;;;;5101992;28;20174;-71
2023/04/17 02:53:53;;;;;;;3.50;0.80;;;25.80;99.90;;;;;;5107466;28;20557;-69
2023/04/17 02:56:21;;;;;;;4.60;1.20;;;25.40;99.90;;;;;;5092403;28;20175;-70
2023/04/17 02:58:48;;;;;;;4.53;0.80;;;24.80;99.90;;;;;;5093108;28;20279;-70
2023/04/17 03:01:16;;;;;;;2.30;1.10;;;24.30;99.90;;;;;;5110949;28;20218;-71
2023/04/17 03:03:44;;;;;;;6.00;0.90;;;23.90;99.90;;;;;;5111906;28;20174;-71
2023/04/17 03:06:12;;;;;;;3.37;1.23;;;23.60;99.90;;;;;;5112162;28;20307;-72
2023/04/17 03:08:42;;;;;;;9.20;1.03;;;23.50;99.90;;;;;;5110532;28;20166;-71
2023/04/17 03:11:10;;;;;;;2.43;0.90;;;23.50;99.90;;;;;;5104004;28;20197;-71
2023/04/17 03:13:37;;;;;;;2.10;0.80;;;23.60;99.90;;;;;;5091744;28;20174;-71
2023/04/17 03:16:06;;;;;;;2.73;0.80;;;23.60;99.90;;;;;;5101797;28;20650;-71
2023/04/17 03:18:38;;;;;;;2.73;0.90;;;23.60;99.90;;;;;;5112481;28;20307;-71
2023/04/17 03:21:06;;;;;;;4.63;1.20;;;23.60;99.90;;;;;;5098465;28;20238;-72
2023/04/17 03:23:34;;;;;;;5.40;1.10;;;23.60;99.90;;;;;;5091938;28;20672;-71
2023/04/17 03:26:02;;;;;;;4.33;0.97;;;23.60;99.90;;;;;;5091905;28;20185;-72
2023/04/17 03:28:30;;;;;;;2.63;0.67;;;23.50;99.90;;;;;;5091343;28;20177;-72
2023/04/17 03:30:58;;;;;;;7.37;1.30;;;23.50;99.90;;;;;;5091988;28;20187;-70
2023/04/17 03:33:26;;;;;;;6.87;1.20;;;23.60;99.90;;;;;;5091821;28;20212;-70
2023/04/17 03:35:54;;;;;;;4.07;1.13;;;23.60;99.90;;;;;;5092042;28;20171;-71
2023/04/17 03:38:22;;;;;;;2.40;0.67;;;23.70;99.90;;;;;;5092156;28;20676;-71
2023/04/17 03:40:51;;;;;;;4.53;1.00;;;23.80;99.90;;;;;;5091917;28;20243;-73
2023/04/17 03:43:18;;;;;;;8.93;1.07;;;23.70;99.90;;;;;;5091347;28;20556;-71
2023/04/17 03:45:46;;;;;;;3.70;1.20;;;23.70;99.90;;;;;;5091881;28;20183;-72
2023/04/17 03:48:14;;;;;;;4.60;1.17;;;23.60;99.90;;;;;;5091762;28;20650;-72
2023/04/17 03:50:42;;;;;;;3.50;1.13;;;23.60;99.90;;;;;;5091277;28;20266;-70
2023/04/17 03:53:09;;;;;;;6.10;0.80;;;23.50;99.90;;;;;;5090371;28;20193;-70
2023/04/17 03:55:37;;;;;;;8.00;0.90;;;23.40;99.90;;;;;;5092719;28;20183;-68
2023/04/17 03:58:05;;;;;;;2.27;0.77;;;23.30;99.90;;;;;;5092614;28;20202;-68
2023/04/17 04:00:33;;;;;;;3.17;0.73;;;23.30;99.90;;;;;;5110916;28;20205;-67
2023/04/17 04:03:01;;;;;;;2.90;0.77;;;23.30;99.90;;;;;;5112588;28;20167;-67
2023/04/17 04:05:29;;;;;;;12.23;1.83;;;23.30;99.90;;;;;;5112064;28;20186;-67
2023/04/17 04:07:56;;;;;;;3.57;1.00;;;23.40;99.90;;;;;;5113071;28;20177;-67
2023/04/17 04:10:24;;;;;;;6.70;1.23;;;23.40;99.90;;;;;;5112968;28;20178;-67
2023/04/17 04:12:52;;;;;;;4.87;1.10;;;23.80;99.90;;;;;;5113138;28;20175;-68
2023/04/17 04:15:20;;;;;;;7.93;1.00;;;24.60;99.90;;;;;;5113035;28;20657;-67
2023/04/17 04:17:47;;;;;;;3.40;0.80;;;25.30;99.90;;;;;;5113044;28;20202;-68
2023/04/17 04:20:15;;;;;;;3.53;1.00;;;26.10;99.90;;;;;;5112886;28;20673;-67
2023/04/17 04:22:43;;;;;;;4.63;1.00;;;26.50;99.90;;;;;;5112875;28;20218;-67
2023/04/17 04:25:11;;;;;;;4.97;0.87;;;26.70;99.90;;;;;;5113026;28;20178;-67
2023/04/17 04:27:39;;;;;;;4.77;1.17;;;27.20;99.90;;;;;;5113108;28;20187;-68
2023/04/17 04:30:09;;;;;;;3.77;1.10;;;27.10;99.90;;;;;;5113036;28;20167;-67
2023/04/17 04:32:37;;;;;;;8.13;1.23;;;26.80;99.90;;;;;;5112939;28;20179;-68
2023/04/17 04:35:05;;;;;;;5.37;1.10;;;26.60;99.90;;;;;;5112778;28;20167;-67
2023/04/17 04:37:33;;;;;;;4.13;1.27;;;26.30;99.90;;;;;;5111439;28;20637;-67
2023/04/17 04:40:09;;;;;;;6.10;1.30;;;25.70;99.90;;;;;;5113449;28;20198;-67
2023/04/17 04:42:48;;;;;;;3.93;1.53;;;25.30;99.90;;;;;;5116858;28;20253;-67
2023/04/17 04:45:17;;;;;;;5.93;1.43;;;25.00;99.90;;;;;;5116529;28;20190;-67
2023/04/17 04:47:45;;;;;;;6.10;1.80;;;25.00;99.90;;;;;;5115311;28;20186;-67
2023/04/17 04:50:13;;;;;;;6.47;1.73;;;24.70;99.90;;;;;;5116401;28;20175;-69
2023/04/17 04:52:40;;;;;;;6.97;1.30;;;24.20;99.90;;;;;;5116649;28;20630;-67
2023/04/17 04:55:08;;;;;;;6.97;1.60;;;23.90;99.90;;;;;;5115036;28;20170;-67
2023/04/17 04:57:36;;;;;;;10.47;3.33;;;23.60;99.90;;;;;;5116280;28;20185;-67
2023/04/17 05:00:05;;;;;;;4.83;1.10;;;23.20;99.90;;;;;;5116062;28;20214;-68
2023/04/17 05:02:33;;;;;;;7.87;2.40;;;23.20;99.90;;;;;;5116535;28;20257;-67
2023/04/17 05:05:00;;;;;;;5.60;1.20;;;23.40;99.90;;;;;;5116537;28;20549;-67
2023/04/17 05:07:28;;;;;;;6.40;1.23;;;23.20;99.90;;;;;;5116330;28;20182;-67
2023/04/17 05:09:56;;;;;;;12.10;1.60;;;23.10;99.90;;;;;;5116116;27;20626;-67
2023/04/17 05:12:23;;;;;;;10.23;1.37;;;22.80;99.90;;;;;;5116013;28;20656;-67
2023/04/17 05:14:51;;;;;;;9.27;1.30;;;22.60;99.90;;;;;;5115900;28;20167;-67
2023/04/17 05:17:19;;;;;;;2.97;1.03;;;22.70;99.90;;;;;;5116197;28;20210;-67
2023/04/17 05:19:47;;;;;;;5.77;1.20;;;22.70;99.90;;;;;;5115872;27;20188;-68
2023/04/17 05:22:15;;;;;;;7.93;1.40;;;22.70;99.90;;;;;;5115704;28;20370;-67
2023/04/17 05:24:42;;;;;;;7.17;1.63;;;22.50;99.90;;;;;;5109837;28;20231;-67
2023/04/17 05:27:10;;;;;;;5.80;1.33;;;22.50;99.90;;;;;;5102131;28;20179;-66
2023/04/17 05:29:37;;;;;;;5.53;1.53;;;22.60;99.90;;;;;;5103219;28;20194;-69
2023/04/17 05:32:04;;;;;;;9.30;1.37;;;22.70;99.90;;;;;;5110084;28;20219;-74
2023/04/17 05:34:32;;;;;;;5.40;1.43;;;22.60;99.90;;;;;;5109383;28;20265;-71
2023/04/17 05:36:59;;;;;;;4.67;1.00;;;22.50;99.90;;;;;;5103940;28;20191;-67
2023/04/17 05:39:26;;;;;;;5.07;1.23;;;22.50;99.90;;;;;;5104965;28;20190;-67
2023/04/17 05:41:54;;;;;;;2.80;1.17;;;22.30;99.90;;;;;;5113988;27;20661;-68
2023/04/17 05:44:22;;;;;;;5.57;1.30;;;22.40;99.90;;;;;;5104093;28;20187;-69
2023/04/17 05:46:49;;;;;;;6.60;1.13;;;22.40;99.90;;;;;;5106873;28;20201;-68
2023/04/17 05:49:17;;;;;;;4.80;1.17;;;22.40;99.90;;;;;;5113990;28;20654;-69
2023/04/17 05:51:44;;;;;;;7.07;1.80;;;22.50;99.90;;;;;;5110989;28;20922;-68
2023/04/17 05:54:11;;;;;;;2.80;1.17;;;22.50;99.90;;;;;;5111318;28;20182;-68
2023/04/17 05:56:39;;;;;;;6.73;1.43;;;22.50;99.90;;;;;;5093458;28;20183;-74
2023/04/17 05:59:06;;;;;;;7.17;1.00;;;22.40;99.90;;;;;;5093080;28;20548;-68
2023/04/17 06:01:34;;;;;;;5.37;1.30;;;22.40;99.90;;;;;;5093315;28;20705;-68
2023/04/17 06:04:02;;;;;;;8.17;1.47;;;22.40;99.90;;;;;;5094621;28;20183;-73
2023/04/17 06:06:30;;;;;;;6.70;1.03;;;22.30;99.90;;;;;;5091591;28;20183;-73
2023/04/17 06:08:57;;;;;;;6.23;1.10;;;22.10;99.90;;;;;;5093697;28;20196;-69
2023/04/17 06:11:24;;;;;;;8.67;1.10;;;22.10;99.90;;;;;;5091848;28;20183;-69
2023/04/17 06:13:52;;;;;;;3.23;1.10;;;22.20;99.90;;;;;;5092910;28;20187;-70
2023/04/17 06:16:19;;;;;;;8.37;2.43;;;22.20;99.90;;;;;;5105527;28;20341;-70
2023/04/17 06:18:46;;;;;;;7.37;1.67;;;22.10;99.90;;;;;;5113288;28;20178;-74
2023/04/17 06:21:14;;;;;;;6.13;1.70;;;22.00;99.90;;;;;;5112862;28;20602;-71
2023/04/17 06:23:41;;;;;;;8.00;1.60;;;22.00;99.90;;;;;;5107877;28;20183;-72
2023/04/17 06:26:11;;;;;;;5.97;1.27;;;22.00;99.90;;;;;;5109462;28;20198;-70
2023/04/17 06:28:38;;;;;;;8.27;1.40;;;22.00;99.90;;;;;;5113104;28;20190;-68
2023/04/17 06:31:05;;;;;;;8.20;1.67;;;21.80;99.90;;;;;;5113424;28;20170;-71
2023/04/17 06:33:33;;;;;;;7.83;1.30;;;21.70;99.90;;;;;;5111888;27;20588;-73
2023/04/17 06:36:01;;;;;;;7.90;1.37;;;21.60;99.90;;;;;;5112918;28;20522;-74
2023/04/17 06:38:28;;;;;;;6.13;1.23;;;21.50;99.90;;;;;;5113208;28;20589;-74
2023/04/17 06:40:56;;;;;;;2.60;1.10;;;21.40;99.90;;;;;;5113119;28;20202;-73
2023/04/17 06:43:23;;;;;;;9.43;1.30;;;21.40;99.90;;;;;;5112737;28;20175;-75
2023/04/17 06:45:51;;;;;;;3.77;0.90;;;21.40;99.90;;;;;;5111696;28;20175;-75
2023/04/17 06:48:18;;;;;;;3.83;1.20;;;21.30;99.90;;;;;;5112995;28;20171;-76
2023/04/17 06:50:45;;;;;;;6.00;1.33;;;21.10;99.90;;;;;;5112509;27;20183;-76
2023/04/17 06:53:13;;;;;;;4.43;1.13;;;21.00;99.90;;;;;;5112805;28;20261;-76
2023/04/17 06:55:40;;;;;;;5.03;1.60;;;20.80;99.90;;;;;;5111630;28;20291;-75
2023/04/17 06:58:10;;;;;;;5.83;1.57;;;20.70;99.90;;;;;;5112611;28;20169;-76
2023/04/17 07:00:38;;;;;;;9.00;1.63;;;20.60;99.90;;;;;;5112649;28;20225;-76
2023/04/17 07:03:05;;;;;;;4.53;1.27;;;20.50;99.90;;;;;;5112537;28;20171;-75
2023/04/17 07:05:33;;;;;;;9.77;1.90;;;20.40;99.90;;;;;;5112255;28;20174;-75
2023/04/17 07:08:00;;;;;;;4.17;1.40;;;20.30;99.90;;;;;;5112710;27;20181;-75
2023/04/17 07:10:28;;;;;;;3.87;1.30;;;20.20;99.90;;;;;;5112735;28;20538;-75
2023/04/17 07:12:55;;;;;;;5.73;1.37;;;20.10;99.90;;;;;;5112126;28;20182;-75
2023/04/17 07:15:22;;;;;;;4.57;1.23;;;20.00;99.90;;;;;;5112691;28;20571;-76
2023/04/17 07:17:50;;;;;;;7.50;1.23;;;19.90;99.90;;;;;;5112421;28;20171;-75
2023/04/17 07:20:17;;;;;;;7.27;1.47;;;19.80;99.90;;;;;;5112244;28;20211;-78
2023/04/17 07:22:45;;;;;;;5.77;1.57;;;19.80;99.90;;;;;;5112285;28;20286;-75
2023/04/17 07:25:12;;;;;;;7.00;1.70;;;19.70;99.90;;;;;;5116240;28;20699;-75
2023/04/17 07:27:40;;;;;;;9.37;1.20;;;19.70;99.90;;;;;;5115774;28;20174;-76
2023/04/17 07:30:08;;;;;;;8.97;1.10;;;19.70;99.90;;;;;;5113202;28;20550;-75
2023/04/17 07:32:36;;;;;;;8.83;1.07;;;19.60;99.90;;;;;;5112452;28;20645;-75
2023/04/17 07:35:03;;;;;;;8.50;1.40;;;19.50;99.90;;;;;;5111681;28;20174;-75
2023/04/17 07:37:31;;;;;;;6.17;1.10;;;19.50;99.90;;;;;;5112404;28;20280;-76
2023/04/17 07:39:59;;;;;;;5.97;1.27;;;19.40;99.90;;;;;;5112133;28;20202;-76
2023/04/17 07:42:28;;;;;;;3.30;0.90;;;19.30;99.90;;;;;;5111945;28;20170;-74
2023/04/17 07:44:57;;;;;;;10.57;1.40;;;19.40;99.90;;;;;;5112152;28;20656;-77
2023/04/17 07:47:25;;;;;;;8.90;1.60;;;19.30;99.90;;;;;;5112263;28;20180;-74
2023/04/17 07:49:52;;;;;;;7.83;1.40;;;19.20;99.90;;;;;;5111697;28;20175;-74
2023/04/17 07:52:19;;;;;;;7.03;1.00;;;19.20;99.90;;;;;;5112221;28;20193;-74
2023/04/17 07:54:47;;;;;;;6.23;1.40;;;19.00;99.90;;;;;;5112038;28;20193;-73
2023/04/17 07:57:16;;;;;;;3.33;0.93;;;19.00;99.90;;;;;;5113345;28;20187;-74
2023/04/17 07:59:44;;;;;;;6.50;1.13;;;18.90;99.90;;;;;;5111532;28;20205;-75
2023/04/17 08:02:12;;;;;;;8.60;1.60;;;18.90;99.90;;;;;;5113114;28;20210;-75
2023/04/17 08:04:40;;;;;;;4.90;1.23;;;18.80;99.90;;;;;;5112240;28;20174;-72
2023/04/17 08:07:09;;;;;;;6.57;1.67;;;18.70;99.90;;;;;;5112142;28;20212;-74
2023/04/17 08:09:37;;;;;;;6.47;1.30;;;18.60;99.90;;;;;;5112024;28;20555;-76
2023/04/17 08:12:05;;;;;;;10.03;1.63;;;18.60;99.90;;;;;;5111747;28;20178;-77
2023/04/17 08:14:32;;;;;;;3.60;1.40;;;18.50;99.90;;;;;;5112244;28;20302;-75
2023/04/17 08:17:00;;;;;;;9.33;1.37;;;18.50;99.90;;;;;;5116188;28;20178;-76
2023/04/17 08:19:28;;;;;;;8.70;1.83;;;18.40;99.90;;;;;;5115713;28;20567;-70
2023/04/17 08:22:03;;;;;;;10.37;2.40;;;18.30;99.90;;;;;;5115851;28;20307;-75
2023/04/17 08:24:31;;;;;;;4.93;1.30;;;18.20;99.90;;;;;;5114896;28;20196;-76
2023/04/17 08:26:58;;;;;;;4.90;1.60;;;18.10;99.90;;;;;;5115530;28;20568;-75
2023/04/17 08:29:26;;;;;;;8.87;1.60;;;18.10;99.90;;;;;;5116089;28;20175;-76
2023/04/17 08:31:54;;;;;;;9.97;2.30;;;18.10;99.90;;;;;;5115915;28;20648;-75
2023/04/17 08:34:22;;;;;;;5.67;1.60;;;18.00;99.90;;;;;;5115342;28;20235;-72
2023/04/17 08:36:49;;;;;;;5.27;1.70;;;18.10;99.90;;;;;;5115843;28;20178;-77
2023/04/17 08:39:17;;;;;;;7.23;1.53;;;18.00;99.90;;;;;;5114454;28;20550;-76
2023/04/17 08:41:53;;;;;;;5.13;1.20;;;18.00;99.90;;;;;;5115161;28;20674;-74
2023/04/17 08:44:21;;;;;;;10.17;1.40;;;17.90;99.90;;;;;;5115778;28;20174;-74
2023/04/17 08:46:49;;;;;;;6.37;1.53;;;17.80;99.90;;;;;;5115254;27;20186;-76
2023/04/17 08:49:16;;;;;;;4.53;1.30;;;17.80;99.90;;;;;;5115150;28;20680;-77
2023/04/17 08:51:45;;;;;;;6.87;1.77;;;17.70;99.90;;;;;;5115112;28;20846;-70
2023/04/17 08:54:13;;;;;;;5.17;1.50;;;17.60;99.90;;;;;;5116411;28;20182;-74
2023/04/17 08:56:40;;;;;;;3.67;1.67;;;17.50;99.90;;;;;;5116468;28;20194;-75
2023/04/17 08:59:07;;;;;;;9.37;2.37;;;17.40;99.90;;;;;;5113556;28;20595;-75
2023/04/17 09:01:36;;;;;;;10.00;1.93;;;17.30;99.90;;;;;;5098721;28;20311;-74
2023/04/17 09:04:03;;;;;;;6.50;1.83;;;17.20;99.90;;;;;;5096176;28;20666;-74
2023/04/17 09:06:53;;;;;;;8.10;1.70;;;17.20;99.90;;;;;;5096973;28;20179;-73
2023/04/17 09:09:20;;;;;;;4.50;1.43;;;17.10;99.90;;;;;;5096171;28;20168;-75
2023/04/17 09:12:09;;;;;;;8.87;1.60;;;17.10;99.90;;;;;;5095982;28;20691;-76
2023/04/17 09:14:36;;;;;;;5.70;1.67;;;17.10;99.90;;;;;;5095853;28;20180;-75
2023/04/17 09:17:03;;;;;;;9.63;1.90;;;17.20;99.90;;;;;;5095746;28;20170;-73
2023/04/17 09:19:31;;;;;;;5.13;1.70;;;17.30;99.90;;;;;;5095829;28;20167;-73
2023/04/17 09:22:22;;;;;;;4.83;1.60;;;17.30;99.90;;;;;;5094011;28;20266;-73
2023/04/17 09:28:14;;;;;;;6.60;1.80;;;17.50;99.90;;;;;;5094814;28;20247;-75
2023/04/17 09:34:10;;;;;;;7.03;1.70;;;17.40;99.90;;;;;;5094916;28;20244;-74
2023/04/17 09:36:40;;;;;;;4.73;1.90;;;17.40;99.90;;;;;;5095313;28;20262;-75
2023/04/17 09:42:29;;;;;;;5.57;1.93;;;17.20;99.90;;;;;;5094592;28;20591;-75
2023/04/17 09:44:57;;;;;;;3.87;1.70;;;17.10;99.90;;;;;;5095565;28;20171;-76
2023/04/17 09:47:24;;;;;;;5.57;1.87;;;17.00;99.90;;;;;;5095218;28;20173;-75
2023/04/17 09:49:52;;;;;;;9.20;2.50;;;17.00;99.90;;;;;;5095101;28;20195;-74
2023/04/17 09:52:25;;;;;;;4.47;1.83;;;16.90;99.90;;;;;;5095212;28;20182;-76
2023/04/17 09:54:52;;;;;;;6.97;2.30;;;16.90;99.90;;;;;;5093824;28;20182;-74
2023/04/17 09:57:20;;;;;;;7.47;2.10;;;16.90;99.90;;;;;;5095231;28;20542;-74
2023/04/17 09:59:48;;;;;;;6.23;1.73;;;16.90;99.90;;;;;;5094895;28;20176;-75
2023/04/17 10:02:17;;;;;;;6.33;1.93;;;16.90;99.90;;;;;;5094692;28;20597;-75
2023/04/17 10:04:46;;;;;;;5.23;1.60;;;16.90;99.90;;;;;;5093412;28;20187;-74
2023/04/17 10:07:15;;;;;;;6.77;2.30;;;16.90;99.90;;;;;;5094796;28;20179;-75
2023/04/17 10:09:45;;;;;;;10.83;2.13;;;17.00;99.90;;;;;;5094556;28;20173;-75
2023/04/17 10:12:16;;;;;;;6.10;1.63;;;17.00;99.90;;;;;;5094780;28;20254;-73
2023/04/17 10:14:49;;;;;;;7.37;1.97;;;17.00;99.90;;;;;;5094984;28;20181;-73
2023/04/17 10:17:35;;;;;;;5.20;1.90;;;17.00;99.90;;;;;;5093312;28;20271;-74
2023/04/17 10:20:21;;;;;;;6.30;1.97;;;17.00;99.90;;;;;;5094322;28;20199;-75
2023/04/17 10:22:55;;;;;;;5.17;2.20;;;16.90;99.90;;;;;;5093424;28;20198;-75
2023/04/17 10:25:27;;;;;;;5.77;1.97;;;16.90;99.90;;;;;;5093428;28;20578;-74
2023/04/17 10:28:00;;;;;;;7.37;2.10;;;16.80;99.90;;;;;;5093429;28;20535;-75
2023/04/17 10:30:53;;;;;;;5.30;2.07;;;16.80;99.90;;;;;;5093418;28;20181;-74
2023/04/17 10:33:23;;;;;;;7.53;1.90;;;16.80;99.90;;;;;;5093466;28;20190;-74
2023/04/17 10:35:51;;;;;;;4.93;1.87;;;16.80;99.90;;;;;;5093327;28;20689;-72
2023/04/17 10:38:32;;;;;;;7.53;2.27;;;16.80;99.90;;;;;;5092574;28;20546;-74
2023/04/17 10:41:02;;;;;;;8.50;1.93;;;16.80;99.90;;;;;;5093198;28;20235;-73
2023/04/17 10:43:30;;;;;;;5.37;2.47;;;16.70;99.90;;;;;;5093737;28;20168;-74
2023/04/17 10:46:11;;;;;;;7.27;2.40;;;16.70;99.90;;;;;;5093011;28;20172;-75
2023/04/17 10:48:51;;;;;;;7.83;2.93;;;16.60;99.90;;;;;;5093059;28;20251;-74
2023/04/17 10:51:27;;;;;;;7.50;2.43;;;16.60;99.90;;;;;;5093199;28;20321;-75
2023/04/17 10:53:59;;;;;;;6.97;2.30;;;16.60;99.90;;;;;;5093064;28;20210;-74
2023/04/17 10:56:37;;;;;;;9.20;2.00;;;16.60;99.90;;;;;;5092913;28;20183;-73
2023/04/17 10:59:09;;;;;;;7.63;2.10;;;16.70;99.90;;;;;;5094699;28;20171;-73
2023/04/17 11:01:56;;;;;;;6.13;2.13;;;16.70;99.90;;;;;;5091557;28;20219;-74
2023/04/17 11:04:32;;;;;;;6.10;2.13;;;16.70;99.90;;;;;;5092876;28;20260;-76
2023/04/17 11:07:00;;;;;;;6.17;2.20;;;16.80;99.90;;;;;;5092945;28;20176;-75
2023/04/17 11:09:29;;;;;;;5.40;2.13;;;16.80;99.90;;;;;;5092601;28;20179;-74
2023/04/17 11:12:01;;;;;;;6.13;2.20;;;16.70;99.90;;;;;;5092063;28;20171;-74
2023/04/17 11:14:29;;;;;;;13.50;3.20;;;16.70;99.90;;;;;;5092406;28;20178;-75
2023/04/17 11:16:56;;;;;;;5.20;2.30;;;16.70;99.90;;;;;;5090880;28;20218;-73
2023/04/17 11:19:25;;;;;;;8.83;2.63;;;16.70;99.90;;;;;;5092110;28;20220;-74
2023/04/17 11:22:00;;;;;;;5.90;2.57;;;16.70;99.90;;;;;;4940183;28;4323339;-75
2023/04/17 11:27:56;;;;;;;7.23;2.93;;;16.70;99.90;;;;;;5092189;28;20260;-75
2023/04/17 11:30:34;;;;;;;8.27;2.40;;;16.60;99.90;;;;;;5092740;28;20182;-75
2023/04/17 11:33:06;;;;;;;7.10;2.50;;;16.60;99.90;;;;;;5092418;28;20183;-73
2023/04/17 11:35:36;;;;;;;8.60;3.57;;;16.60;99.90;;;;;;5092304;28;20661;-75
2023/04/17 11:38:22;;;;;;;8.67;2.77;;;16.60;99.90;;;;;;5091697;28;20634;-74
2023/04/17 11:40:52;;;;;;;9.87;3.20;;;16.60;99.90;;;;;;5091251;28;20727;-73
2023/04/17 11:43:22;;;;;;;6.57;2.80;;;16.60;99.90;;;;;;5092670;28;20653;-74
2023/04/17 11:45:55;;;;;;;7.57;2.97;;;16.60;99.90;;;;;;5090923;28;20616;-75
2023/04/17 11:48:25;;;;;;;5.97;2.83;;;16.50;99.90;;;;;;5092579;28;20194;-74
2023/04/17 11:50:59;;;;;;;14.17;2.70;;;16.40;99.90;;;;;;5090375;28;20677;-75
2023/04/17 11:53:27;;;;;;;9.27;3.00;;;16.40;99.90;;;;;;5092532;28;20171;-75
2023/04/17 11:56:14;;;;;;;8.77;3.10;;;16.40;99.90;;;;;;5092539;28;20264;-75
2023/04/17 11:58:52;;;;;;;11.13;3.27;;;16.40;99.90;;;;;;5092536;28;20182;-72
2023/04/17 12:01:24;;;;;;;7.57;3.40;;;16.50;99.90;;;;;;5092276;28;20674;-75
2023/04/17 12:03:58;;;;;;;8.60;3.37;;;16.50;99.90;;;;;;5092840;28;20168;-73
2023/04/17 12:06:36;;;;;;;8.10;3.00;;;16.50;99.90;;;;;;5092435;28;20181;-75
2023/04/17 12:09:05;;;;;;;7.47;3.00;;;16.60;99.90;;;;;;5092786;28;20312;-75
2023/04/17 12:11:34;;;;;;;9.67;3.43;;;16.60;99.90;;;;;;5092554;28;20175;-74
2023/04/17 12:14:04;;;;;;;15.00;4.33;;;16.60;99.90;;;;;;5091592;28;20176;-73
2023/04/17 12:16:31;;;;;;;11.37;3.20;;;16.60;99.90;;;;;;5092210;28;20184;-73
2023/04/17 12:18:58;;;;;;;4.77;2.00;;;16.60;99.90;;;;;;5092595;28;20175;-74
2023/04/17 12:21:26;;;;;;;5.27;2.33;;;16.50;99.90;;;;;;5092067;28;20222;-72
2023/04/17 12:23:54;;;;;;;10.30;2.87;;;16.50;99.90;;;;;;5090819;28;20183;-74
2023/04/17 12:26:21;;;;;;;9.07;2.70;;;16.40;99.90;;;;;;5092367;28;20183;-74
2023/04/17 12:28:48;;;;;;;7.00;1.97;;;16.30;99.90;;;;;;5092213;28;20570;-69
2023/04/17 12:31:16;;;;;;;6.00;2.73;;;16.30;99.90;;;;;;5091931;28;20220;-74
2023/04/17 12:33:43;;;;;;;8.53;3.27;;;16.20;99.90;;;;;;5092366;28;20194;-73
2023/04/17 12:36:11;;;;;;;8.30;2.53;;;16.10;99.90;;;;;;5094187;28;20223;-69
2023/04/17 12:38:38;;;;;;;6.97;2.20;;;16.00;99.90;;;;;;5092287;28;20183;-75
2023/04/17 12:41:06;;;;;;;8.57;2.00;;;16.10;99.90;;;;;;5092132;28;20207;-74
2023/04/17 12:43:33;;;;;;;6.60;2.10;;;16.00;99.90;;;;;;5099727;28;20212;-76
2023/04/17 12:46:01;;;;;;;5.63;2.20;;;16.00;99.90;;;;;;5108313;28;20187;-72
2023/04/17 12:48:28;;;;;;;7.23;2.17;;;15.90;99.90;;;;;;5091747;28;20179;-76
2023/04/17 12:50:55;;;;;;;5.67;1.90;;;15.90;99.90;;;;;;5103430;28;20212;-69
2023/04/17 12:53:23;;;;;;;5.83;2.00;;;15.80;99.90;;;;;;5099454;28;20183;-72
2023/04/17 12:55:50;;;;;;;8.47;2.27;;;15.70;99.90;;;;;;5105902;28;20679;-74
2023/04/17 12:58:17;;;;;;;5.97;2.13;;;15.60;99.90;;;;;;5093180;28;20243;-73
2023/04/17 13:00:45;;;;;;;6.87;2.23;;;15.50;99.90;;;;;;5091046;28;20273;-73
2023/04/17 13:03:13;;;;;;;8.07;2.27;;;15.40;99.90;;;;;;5095311;28;20225;-71
2023/04/17 13:05:41;;;;;;;6.40;2.13;;;15.30;99.90;;;;;;5095553;28;20183;-72
2023/04/17 13:08:13;;;;;;;7.07;2.50;;;15.20;99.90;;;;;;5095601;28;20182;-74
2023/04/17 13:10:44;;;;;;;9.33;2.40;;;15.10;99.90;;;;;;5099553;28;20713;-73
2023/04/17 13:13:11;;;;;;;7.33;2.73;;;15.00;99.90;;;;;;5095226;28;20191;-74